Aérodrome :
LOGIN :

S'inscrire | Disclaimer

   EN    FR    IT 

 










Légende :    VFR   VFR Marginal   IFR   IFR Intensif   IFR Très Intensif
Visi : 
Plafond : 
>= 8 km
>= 3000ft
5 à 8 km
1000 à 3000 ft
1500m à 5 km
500 à 1000 ft
800 à 1500m
200 à 500 ft
< 800m
< 200 ft
Symboles :   Orages  Brouillard  Fortes neiges  Fortes précipitations  Vent > 20 kt
SIGMETs :   Divers  Orages  Givrage  Turbulence  Onde Orograph.  Cendres Volcan.







- Altitude de l'aérodrome : 465 ft
- Code IATA : LEJ


EDDP - Leipzig Halle

DERNIER METAR :
  • 240720Z 28018KT 9999 FEW024 SCT050 09/05 Q1025 BECMG 28015G25KT

METARs EXPIRÉS :
  • 240650Z 27018KT 9999 FEW020 09/06 Q1024 BECMG 28015G25KT
  • 240620Z 28016KT 9999 FEW020 SCT045 09/06 Q1024 BECMG 28015G25KT
  • 240550Z 27013KT 9999 FEW015 SCT100 08/06 Q1023 BECMG 28015G25KT
  • 240520Z 27016KT 9999 FEW015 08/06 Q1023 NOSIG
  • 240450Z 27015KT 9999 FEW015 BKN060 08/05 Q1022 NOSIG

TAF TAF EDDP
Valide du 24 à 06h jusqu'au 25 à 06h UTC


240500Z 2406/2506 28015KT 9999 SCT025
BECMG 2406/2408 28020G30KT
PROB40
TEMPO 2409/2417 28020G40KT SHRA BKN020CB
BECMG 2417/2419 28010KT
Pas de NOTAMs connus pour ce terrain.



MET'MAP, la Météo Aéronautique d'un coup d'oeil ! - Copyright ORBIFLY Décembre 2007 - Disclaimer

ORBIFLY MET'MAP TEAM :

Programmation & Développement : Alexandra Zaïnal
Conception & Développement : Baudouin d'Aumeries
Co-Programmation & Développement : Marc-Olivier Méhu
Soutien technique & logistique : Manuel Goepfert

Contact : metmap@orbifly.com




SOURCES & CREDITS :

   NOAA